Decoded Metar for PAYA (YAKUTAT in AK, USA) (IATA:YAK) | Meteo·Mobile Aviation Weather
aviador You're here:

PAYA Decoded Metar

YAKUTAT in AK, USA
Report Time2018-08-16 00:22:00
UTC Time2018-08-16 00:48:20
Flight Rules mvfr MVFR
Wind190° at 08 kt
W.Decomp.*RWY 20: 6.9 kt HW 4 kt LCW
RWY 11: 4.0 kt HW 6.9 kt RCW
W.Rank190° ranks 25
Current wind is above 190° avg. (6.6)
Visibility9999 m
Phenomena:N/A
Clouds:Scattered 014 Hf
Broken 026 Hf
Overcast 049 Hf
Expected CloudBase > 800 ft AGL from Temp-Dew spread
Ceiling2,600 ft
Temp14°C (ISA -1)
Dew Point12°C (88% RH)
AAT11.8°C
QNH1018 hPa
Density Alt-56 ft
Elevation36 ft
Report Wrong Elevation
Raw Report
PAYA 160022Z AUTO 19008KT 10SM SCT014 BKN026 OVC049 14/12 A3007=

Extra information for PAYA:More info

Metar Taf Metar & Taf Last 4 Metars F.Rules Stats Wind Profile Meteogram Temp Stats Airport Information Weather charts Add Link Nearby VenuesMetar ALERT Operation Metar Decoded Social comments

AIRNAV info for PAYA